Aeroporto :
LOGIN :

Iscrizione | Disclaimer

   EN    FR    IT 

 










Sommario :    VFR   VFR Marginale   IFR   IFR Intensivo   IFR Molto Intensivo
Visibilità : 
Base nubi : 
>= 8 km
>= 3000ft
5 / 8 km
1000 / 3000 ft
1500m / 5 km
500 / 1000 ft
800 / 1500m
200 / 500 ft
< 800m
< 200 ft
Simboli :   Temporali  Nebbia  Neve Forte  Precipitazioni Forti  Vento > 20 kt
SIGMETs :   Varie  Temporali  Ghiacco  Turbolenza  Onda orograficha  Ceneri Vulcaniche






- Altitudine del aeroporto : 9 ft
- Codice IATA : MIR


DTMB - Habib Bourguliba Int. Monastir

ULTIMO METAR :
  • 192000Z 31016KT CAVOK 14/05 Q1025

METARs OBSOLETI :
  • 191930Z 31017KT CAVOK 14/06 Q1025
  • 191900Z 31016KT CAVOK 15/06 Q1025
  • 191830Z 31017KT CAVOK 15/06 Q1025
  • 191800Z 32015KT CAVOK 16/06 Q1025
  • 191730Z 31018KT CAVOK 16/06 Q1024

TAF TAF DTMB
Valido dal 19 a 18 ore il 20 a 18 ore UTC


191700Z 1918/2018 31016KT CAVOK
TEMPO 1918/1924 32018G28KT
BECMG 2004/2006 30010KT



MetMap, La meteo Aeronautica in un colpo d'occhio ! - Copyright ORBIFLY Dicembre 2007 - Disclaimer

ORBIFLY MET'MAP TEAM :

Programmazione e sviluppo : Alexandra Zaïnal
Concezione : Baudouin d'Aumeries
Aiuto per la programmazione : Marc-Olivier Méhu
Supporto tecnico e logistico : Manuel Goepfert
Aiuto per la traduzione : Arnaldo La Scala

Contatto : metmap@orbifly.com




FONTI E CREDITI :

   NOAA